createdAt,value
2018-06-09T00:00:20.550Z,67.12
2018-06-09T00:02:49.310Z,65.92
2018-06-09T00:05:18.022Z,66.55
2018-06-09T00:07:46.758Z,66.03
2018-06-09T00:10:15.497Z,66.24
2018-06-09T00:12:44.186Z,67.60
2018-06-09T00:15:12.881Z,67.80
2018-06-09T00:17:41.622Z,68.55
2018-06-09T00:20:10.318Z,66.44
2018-06-09T00:22:39.013Z,64.60
2018-06-09T00:25:07.962Z,64.23
2018-06-09T00:27:36.681Z,67.20
2018-06-09T00:30:05.403Z,68.27
2018-06-09T00:32:34.134Z,69.31
2018-06-09T00:35:02.867Z,66.25
2018-06-09T00:37:31.569Z,65.72
2018-06-09T00:40:00.325Z,70.08
2018-06-09T00:42:29.015Z,67.64
2018-06-09T00:44:57.730Z,67.66
2018-06-09T00:47:26.438Z,65.82
2018-06-09T00:49:55.171Z,66.01
2018-06-09T00:52:23.893Z,65.29
2018-06-09T00:54:52.622Z,65.48
2018-06-09T00:57:21.321Z,64.84
2018-06-09T00:59:50.015Z,64.15
2018-06-09T01:02:18.728Z,64.72
2018-06-09T01:04:47.439Z,64.94
2018-06-09T01:07:16.228Z,65.71
2018-06-09T01:09:45.023Z,65.95
2018-06-09T01:12:13.746Z,66.85
2018-06-09T01:14:42.606Z,66.73
2018-06-09T01:17:11.365Z,66.53
2018-06-09T01:19:40.091Z,65.85
2018-06-09T01:22:08.802Z,66.35
2018-06-09T01:24:37.550Z,65.65
2018-06-09T01:27:06.281Z,66.55
2018-06-09T01:29:35.002Z,66.76
2018-06-09T01:32:03.729Z,66.29
2018-06-09T01:34:32.441Z,67.23
2018-06-09T01:37:01.141Z,65.91
2018-06-09T01:39:29.864Z,66.72
2018-06-09T01:41:58.557Z,66.55
2018-06-09T01:44:27.257Z,66.25
2018-06-09T01:46:55.989Z,66.08
2018-06-09T01:49:24.669Z,65.42
2018-06-09T01:51:53.379Z,66.32
2018-06-09T01:54:22.098Z,65.35
2018-06-09T01:56:50.818Z,66.56
2018-06-09T01:59:19.562Z,65.89
2018-06-09T02:01:48.308Z,67.04
2018-06-09T02:04:17.032Z,67.27
2018-06-09T02:06:45.734Z,67.88
2018-06-09T02:09:14.461Z,68.17
2018-06-09T02:11:43.328Z,68.25
2018-06-09T02:14:12.042Z,68.50
2018-06-09T02:16:40.782Z,68.42
2018-06-09T02:19:09.468Z,70.85
2018-06-09T02:21:38.158Z,69.41
2018-06-09T02:24:06.912Z,69.53
2018-06-09T02:26:35.636Z,69.73
2018-06-09T02:29:04.354Z,69.41
2018-06-09T02:31:33.123Z,69.96
2018-06-09T02:34:01.825Z,71.03
2018-06-09T02:36:30.521Z,74.60
2018-06-09T02:38:59.270Z,74.25
2018-06-09T02:41:28.005Z,73.54
2018-06-09T02:43:56.794Z,71.15
2018-06-09T02:46:25.541Z,73.52
2018-06-09T02:48:54.261Z,75.16
2018-06-09T02:51:22.986Z,76.39
2018-06-09T02:53:51.746Z,76.37
2018-06-09T02:56:20.502Z,77.94
2018-06-09T02:58:49.202Z,76.59
2018-06-09T03:01:17.957Z,75.76
2018-06-09T03:03:46.686Z,76.15
2018-06-09T03:06:15.535Z,76.33
2018-06-09T03:08:44.281Z,77.18
2018-06-09T03:11:13.003Z,77.25
2018-06-09T03:13:41.725Z,78.02
2018-06-09T03:16:10.482Z,77.12
2018-06-09T03:18:39.201Z,77.41
2018-06-09T03:21:07.966Z,76.03
2018-06-09T03:23:36.725Z,77.45
2018-06-09T03:26:05.451Z,75.40
2018-06-09T03:28:34.270Z,75.78
2018-06-09T03:31:03.030Z,73.57
2018-06-09T03:33:31.792Z,74.55
2018-06-09T03:36:00.538Z,72.19
2018-06-09T03:38:29.331Z,70.53
2018-06-09T03:40:58.072Z,68.65
2018-06-09T03:43:26.926Z,65.95
2018-06-09T03:45:55.741Z,64.95
2018-06-09T03:48:24.492Z,61.64
2018-06-09T03:50:53.222Z,60.02
2018-06-09T03:53:21.993Z,57.19
2018-06-09T03:55:50.704Z,55.48
2018-06-09T03:58:19.498Z,54.22
2018-06-09T04:00:48.411Z,53.60
2018-06-09T04:03:17.117Z,51.99
2018-06-09T04:05:45.819Z,53.16
2018-06-09T04:08:14.550Z,52.37
2018-06-09T04:10:43.250Z,47.94
2018-06-09T04:13:11.967Z,49.14
2018-06-09T04:15:40.721Z,47.03
2018-06-09T04:18:09.444Z,46.86
2018-06-09T04:20:38.191Z,44.73
2018-06-09T04:23:06.969Z,43.67
2018-06-09T04:25:35.699Z,42.43
2018-06-09T04:28:04.419Z,40.35
2018-06-09T04:30:33.170Z,41.58
2018-06-09T04:33:01.878Z,40.32
2018-06-09T04:35:30.590Z,40.43
2018-06-09T04:37:59.347Z,39.54
2018-06-09T04:40:28.097Z,38.62
2018-06-09T04:42:56.839Z,34.32
2018-06-09T04:45:25.622Z,36.02
2018-06-09T04:47:54.347Z,35.41
2018-06-09T04:50:23.154Z,34.49
2018-06-09T04:52:51.896Z,33.88
2018-06-09T04:55:20.609Z,34.56
2018-06-09T04:57:49.346Z,29.67
2018-06-09T05:00:18.719Z,29.56
2018-06-09T05:02:47.442Z,31.50
2018-06-09T05:05:16.167Z,32.34
2018-06-09T05:07:44.929Z,32.17
2018-06-09T05:10:13.674Z,31.97
2018-06-09T05:12:42.390Z,31.38
2018-06-09T05:15:11.121Z,31.99
2018-06-09T05:17:39.838Z,34.46
2018-06-09T05:20:08.558Z,34.90
2018-06-09T05:22:37.320Z,34.35
2018-06-09T05:25:06.025Z,35.13
2018-06-09T05:27:34.735Z,35.68
2018-06-09T05:30:03.542Z,35.91
2018-06-09T05:32:32.259Z,35.10
2018-06-09T05:35:00.986Z,34.85
2018-06-09T05:37:29.763Z,35.22
2018-06-09T05:39:58.598Z,35.47
2018-06-09T05:42:27.376Z,33.56
2018-06-09T05:44:56.129Z,34.36
2018-06-09T05:47:24.882Z,32.45
2018-06-09T05:49:53.599Z,32.19
2018-06-09T05:52:22.356Z,32.29
2018-06-09T05:54:51.073Z,32.36
2018-06-09T05:57:19.804Z,31.48
2018-06-09T05:59:48.584Z,29.83
2018-06-09T06:02:17.348Z,27.54
2018-06-09T06:04:46.056Z,27.99
2018-06-09T06:07:14.840Z,28.22
2018-06-09T06:09:43.598Z,28.59
2018-06-09T06:12:12.320Z,29.93
2018-06-09T06:14:41.111Z,31.61
2018-06-09T06:17:09.863Z,32.46
2018-06-09T06:19:38.698Z,31.85
2018-06-09T06:22:07.619Z,33.79
2018-06-09T06:24:36.370Z,34.59
2018-06-09T06:27:05.087Z,33.16
2018-06-09T06:29:33.856Z,31.29
2018-06-09T06:32:02.654Z,30.48
2018-06-09T06:34:31.415Z,29.53
2018-06-09T06:37:00.214Z,31.89
2018-06-09T06:39:28.990Z,31.20
2018-06-09T06:41:57.793Z,30.48
2018-06-09T06:44:26.566Z,30.17
2018-06-09T06:46:55.299Z,29.12
2018-06-09T06:49:24.295Z,27.15
2018-06-09T06:51:53.050Z,29.28
2018-06-09T06:54:21.786Z,28.17
2018-06-09T06:56:50.608Z,27.11
2018-06-09T06:59:19.338Z,27.50
2018-06-09T07:01:48.051Z,28.70
2018-06-09T07:04:16.769Z,27.39
2018-06-09T07:06:45.507Z,28.83
2018-06-09T07:09:14.239Z,30.05
2018-06-09T07:11:43.012Z,33.03
2018-06-09T07:14:11.870Z,34.95
2018-06-09T07:16:40.622Z,36.32
2018-06-09T07:19:09.388Z,34.68
2018-06-09T07:21:38.183Z,34.49
2018-06-09T07:24:06.917Z,36.56
2018-06-09T07:26:36.914Z,36.77
2018-06-09T07:29:05.693Z,34.68
2018-06-09T07:31:34.459Z,33.11
2018-06-09T07:34:03.215Z,30.90
2018-06-09T07:36:32.058Z,28.64
2018-06-09T07:39:00.825Z,31.47
2018-06-09T07:41:29.590Z,32.68
2018-06-09T07:43:58.442Z,31.21
2018-06-09T07:46:27.181Z,30.22
2018-06-09T07:48:55.954Z,31.77
2018-06-09T07:51:24.708Z,34.09
2018-06-09T07:53:53.475Z,33.34
2018-06-09T07:56:22.236Z,31.68
2018-06-09T07:58:50.974Z,29.58
2018-06-09T08:01:19.739Z,28.70
2018-06-09T08:03:48.462Z,27.85
2018-06-09T08:06:17.257Z,28.60
2018-06-09T08:08:46.004Z,30.87
2018-06-09T08:11:14.726Z,32.21
2018-06-09T08:13:43.475Z,31.87
2018-06-09T08:16:12.285Z,31.59
2018-06-09T08:18:40.998Z,30.91
2018-06-09T08:21:09.717Z,31.05
2018-06-09T08:23:38.406Z,31.47
2018-06-09T08:26:07.089Z,30.91
2018-06-09T08:28:35.829Z,29.76
2018-06-09T08:31:04.517Z,30.21
2018-06-09T08:33:33.193Z,29.65
2018-06-09T08:36:02.006Z,30.47
2018-06-09T08:38:30.647Z,29.59
2018-06-09T08:40:59.371Z,29.59
2018-06-09T08:43:28.145Z,29.33
2018-06-09T08:45:56.886Z,28.92
2018-06-09T08:48:26.465Z,29.18
2018-06-09T08:50:55.200Z,29.65
2018-06-09T08:53:23.906Z,29.90
2018-06-09T08:55:52.630Z,31.50
2018-06-09T08:58:21.421Z,29.39
2018-06-09T09:00:50.157Z,28.14
2018-06-09T09:03:18.894Z,29.13
2018-06-09T09:05:47.632Z,28.78
2018-06-09T09:08:16.462Z,31.13
2018-06-09T09:10:45.202Z,32.45
2018-06-09T09:13:13.997Z,32.54
2018-06-09T09:15:42.758Z,31.96
2018-06-09T09:18:11.466Z,31.38
2018-06-09T09:20:40.214Z,31.30
2018-06-09T09:23:08.931Z,29.36
2018-06-09T09:25:37.624Z,29.22
2018-06-09T09:28:06.358Z,28.62
2018-06-09T09:30:35.046Z,30.11
2018-06-09T09:33:03.778Z,31.34
2018-06-09T09:35:32.513Z,30.86
2018-06-09T09:38:01.228Z,33.03
2018-06-09T09:40:29.994Z,33.57
2018-06-09T09:42:58.914Z,33.74
2018-06-09T09:45:27.630Z,34.30
2018-06-09T09:47:56.373Z,34.72
2018-06-09T09:50:25.201Z,35.25
2018-06-09T09:52:53.905Z,35.92
2018-06-09T09:55:22.737Z,35.78
2018-06-09T09:58:00.631Z,36.61
2018-06-09T10:00:34.547Z,35.86
2018-06-09T10:03:03.317Z,36.14
2018-06-09T10:05:32.152Z,35.50
2018-06-09T10:08:00.853Z,33.31
2018-06-09T10:10:29.608Z,32.83
2018-06-09T10:12:58.500Z,33.46
2018-06-09T10:15:27.305Z,32.54
2018-06-09T10:17:56.160Z,32.16
2018-06-09T10:20:24.978Z,30.62
2018-06-09T10:22:53.677Z,31.48
2018-06-09T10:25:22.447Z,32.22
2018-06-09T10:27:51.170Z,31.94
2018-06-09T10:30:19.895Z,29.45
2018-06-09T10:32:48.635Z,29.70
2018-06-09T10:35:17.342Z,29.39
2018-06-09T10:37:46.125Z,30.24
2018-06-09T10:40:14.846Z,30.43
2018-06-09T10:42:43.642Z,31.30
2018-06-09T10:45:12.808Z,31.52
2018-06-09T10:47:41.548Z,33.08
2018-06-09T10:50:10.499Z,34.07
2018-06-09T10:52:39.252Z,34.08
2018-06-09T10:55:08.043Z,34.42
2018-06-09T10:57:36.786Z,35.84
2018-06-09T11:00:05.786Z,35.32
2018-06-09T11:02:34.481Z,34.69
2018-06-09T11:05:03.181Z,35.49
2018-06-09T11:07:31.916Z,33.61
2018-06-09T11:10:00.648Z,33.45
2018-06-09T11:12:29.337Z,33.70
2018-06-09T11:14:58.064Z,32.96
2018-06-09T11:17:26.781Z,31.38
2018-06-09T11:19:55.489Z,29.90
2018-06-09T11:22:24.223Z,30.69
2018-06-09T11:24:52.912Z,28.99
2018-06-09T11:27:21.605Z,28.25
2018-06-09T11:29:50.329Z,28.13
2018-06-09T11:32:19.157Z,29.41
2018-06-09T11:34:47.879Z,28.71
2018-06-09T11:37:16.601Z,29.57
2018-06-09T11:39:45.432Z,30.06
2018-06-09T11:42:14.113Z,26.73
2018-06-09T11:44:42.834Z,27.76
2018-06-09T11:47:11.559Z,25.18
2018-06-09T11:49:40.253Z,25.40
2018-06-09T11:52:08.971Z,26.79
2018-06-09T11:54:37.686Z,27.98
2018-06-09T11:57:06.380Z,27.76
2018-06-09T11:59:35.494Z,28.24
2018-06-09T12:02:04.222Z,29.16
2018-06-09T12:04:34.123Z,28.39
2018-06-09T12:07:02.890Z,26.75
2018-06-09T12:09:31.619Z,25.95
2018-06-09T12:12:00.342Z,25.36
2018-06-09T12:14:29.083Z,27.68
2018-06-09T12:16:58.780Z,26.55
2018-06-09T12:19:27.542Z,27.24
2018-06-09T12:21:56.310Z,26.01
2018-06-09T12:24:25.039Z,27.00
2018-06-09T12:26:53.744Z,27.42
2018-06-09T12:29:22.493Z,29.39
2018-06-09T12:31:51.306Z,30.81
2018-06-09T12:34:20.051Z,30.88
2018-06-09T12:36:48.791Z,31.39
2018-06-09T12:39:17.647Z,32.33
2018-06-09T12:41:46.368Z,32.52
2018-06-09T12:44:15.204Z,32.84
2018-06-09T12:46:43.940Z,33.03
2018-06-09T12:49:12.680Z,33.02
2018-06-09T12:51:41.470Z,33.53
2018-06-09T12:54:10.162Z,33.61
2018-06-09T12:56:38.885Z,33.97
2018-06-09T12:59:07.676Z,33.35
2018-06-09T13:01:36.400Z,33.48
2018-06-09T13:04:05.148Z,32.59
2018-06-09T13:06:34.015Z,32.48
2018-06-09T13:09:02.747Z,32.38
2018-06-09T13:11:31.439Z,33.14
2018-06-09T13:14:00.196Z,32.60
2018-06-09T13:16:28.884Z,32.25
2018-06-09T13:18:57.586Z,31.46
2018-06-09T13:21:26.318Z,31.70
2018-06-09T13:23:55.039Z,31.81
2018-06-09T13:26:23.739Z,32.31
2018-06-09T13:28:52.568Z,31.83
2018-06-09T13:31:21.312Z,32.76
2018-06-09T13:33:50.038Z,32.42
2018-06-09T13:36:18.773Z,33.01
2018-06-09T13:38:47.498Z,32.72
2018-06-09T13:41:16.273Z,33.03
2018-06-09T13:43:44.957Z,34.07
2018-06-09T13:46:13.835Z,34.70
2018-06-09T13:48:42.548Z,33.48
2018-06-09T13:51:11.487Z,34.08
2018-06-09T13:53:40.205Z,33.58
2018-06-09T13:56:09.000Z,34.25
2018-06-09T13:58:37.927Z,34.31
2018-06-09T14:01:06.789Z,33.66
2018-06-09T14:03:35.518Z,33.68
2018-06-09T14:06:04.277Z,33.68
2018-06-09T14:08:33.066Z,33.84
2018-06-09T14:11:01.815Z,34.02
2018-06-09T14:13:30.574Z,32.67
2018-06-09T14:15:59.287Z,33.43
2018-06-09T14:18:28.019Z,34.17
2018-06-09T14:20:56.805Z,33.27
2018-06-09T14:23:25.537Z,33.84
2018-06-09T14:25:54.309Z,34.82
2018-06-09T14:28:23.078Z,34.89
2018-06-09T14:30:51.820Z,34.66
2018-06-09T14:33:20.542Z,34.61
2018-06-09T14:35:49.307Z,34.75
2018-06-09T14:38:18.020Z,35.08
2018-06-09T14:40:46.846Z,34.63
2018-06-09T14:43:15.637Z,35.06
2018-06-09T14:45:44.450Z,34.75
2018-06-09T14:48:13.415Z,34.04
2018-06-09T14:50:42.302Z,33.86
2018-06-09T14:53:11.039Z,34.17
2018-06-09T14:55:39.796Z,32.68
2018-06-09T14:58:09.101Z,33.46
2018-06-09T15:00:37.828Z,33.72
2018-06-09T15:03:06.566Z,34.26
2018-06-09T15:05:35.456Z,32.89
2018-06-09T15:08:04.231Z,33.93
2018-06-09T15:10:32.937Z,34.25
2018-06-09T15:13:02.057Z,33.98
2018-06-09T15:15:30.915Z,33.85
2018-06-09T15:17:59.780Z,33.90
2018-06-09T15:20:28.642Z,34.29
2018-06-09T15:22:57.462Z,35.50
2018-06-09T15:25:26.169Z,34.13
2018-06-09T15:27:54.885Z,33.79
2018-06-09T15:30:23.632Z,33.11
2018-06-09T15:32:53.551Z,34.50
2018-06-09T15:35:25.742Z,33.66
2018-06-09T15:37:58.181Z,34.12
2018-06-09T15:40:27.137Z,34.30
2018-06-09T15:42:56.055Z,33.97
2018-06-09T15:45:25.109Z,34.54
2018-06-09T15:47:53.861Z,34.46
2018-06-09T15:50:22.579Z,34.64
2018-06-09T15:52:51.398Z,34.34
2018-06-09T15:55:20.253Z,34.11
2018-06-09T15:57:49.090Z,34.65
2018-06-09T16:00:17.884Z,34.00
2018-06-09T16:02:46.698Z,34.79
2018-06-09T16:05:15.422Z,34.78
2018-06-09T16:07:44.415Z,35.04
2018-06-09T16:10:13.203Z,35.47
2018-06-09T16:12:41.922Z,35.65
2018-06-09T16:15:10.605Z,35.19
2018-06-09T16:17:43.104Z,35.84
2018-06-09T16:20:11.945Z,36.96
2018-06-09T16:22:40.661Z,37.33
2018-06-09T16:25:09.464Z,37.97
2018-06-09T16:27:38.177Z,37.99
2018-06-09T16:30:06.901Z,39.50
2018-06-09T16:32:35.817Z,38.83
2018-06-09T16:35:04.575Z,40.74
2018-06-09T16:37:33.252Z,42.23
2018-06-09T16:40:01.983Z,42.49
2018-06-09T16:42:30.685Z,41.41
2018-06-09T16:45:05.781Z,40.81
2018-06-09T16:47:34.490Z,41.43
2018-06-09T16:50:03.234Z,41.16
2018-06-09T16:52:32.305Z,41.62
2018-06-09T16:55:01.022Z,40.80
2018-06-09T16:57:29.850Z,42.67
2018-06-09T16:59:58.602Z,43.88
2018-06-09T17:02:27.317Z,44.74
2018-06-09T17:04:56.056Z,46.37
2018-06-09T17:07:24.809Z,46.43
2018-06-09T17:09:53.521Z,47.62
2018-06-09T17:12:22.221Z,47.76
2018-06-09T17:14:51.060Z,49.14
2018-06-09T17:17:19.881Z,49.76
2018-06-09T17:19:48.581Z,50.74
2018-06-09T17:22:17.300Z,52.25
2018-06-09T17:24:45.985Z,52.81
2018-06-09T17:27:14.693Z,53.14
2018-06-09T17:29:43.467Z,53.01
2018-06-09T17:32:12.214Z,53.70
2018-06-09T17:34:40.922Z,53.73
2018-06-09T17:37:09.753Z,54.38
2018-06-09T17:39:38.433Z,55.15
2018-06-09T17:42:07.322Z,54.74
2018-06-09T17:44:36.057Z,55.96
2018-06-09T17:47:04.767Z,58.94
2018-06-09T17:49:33.484Z,58.33
2018-06-09T17:52:02.775Z,64.33
2018-06-09T17:54:31.473Z,62.67
2018-06-09T17:57:04.410Z,60.68
2018-06-09T17:59:38.840Z,64.59
2018-06-09T18:02:13.641Z,61.28
2018-06-09T18:04:47.797Z,64.37
2018-06-09T18:07:22.575Z,63.29
2018-06-09T18:09:55.203Z,65.15
2018-06-09T18:12:27.416Z,65.92
2018-06-09T18:15:00.193Z,65.76
2018-06-09T18:17:32.431Z,68.61
2018-06-09T18:20:04.559Z,68.52
2018-06-09T18:22:37.673Z,69.34
2018-06-09T18:25:10.844Z,70.82
2018-06-09T18:27:44.452Z,71.27
2018-06-09T18:30:17.238Z,71.56
2018-06-09T18:32:50.466Z,68.41
2018-06-09T18:35:24.301Z,68.47
2018-06-09T18:37:58.211Z,69.59
2018-06-09T18:40:31.093Z,69.37
2018-06-09T18:43:05.285Z,68.43
2018-06-09T18:45:38.950Z,67.94
2018-06-09T18:48:13.598Z,68.78
2018-06-09T18:50:42.583Z,70.69
2018-06-09T18:53:11.318Z,71.88
2018-06-09T18:55:40.043Z,72.84
2018-06-09T18:58:08.784Z,74.32
2018-06-09T19:00:37.525Z,73.54
2018-06-09T19:03:06.295Z,73.40
2018-06-09T19:05:35.007Z,76.42
2018-06-09T19:08:03.722Z,75.55
2018-06-09T19:10:32.547Z,74.83
2018-06-09T19:13:01.289Z,75.86
2018-06-09T19:15:31.905Z,75.50
2018-06-09T19:18:00.666Z,77.76
2018-06-09T19:20:29.357Z,78.83
2018-06-09T19:22:58.073Z,76.22
2018-06-09T19:25:26.812Z,78.51
2018-06-09T19:27:55.559Z,79.30
2018-06-09T19:30:24.302Z,79.43
2018-06-09T19:32:53.190Z,80.16
2018-06-09T19:35:21.925Z,80.35
2018-06-09T19:37:50.633Z,80.37
2018-06-09T19:40:19.439Z,79.39
2018-06-09T19:42:48.261Z,78.27
2018-06-09T19:45:17.094Z,75.47
2018-06-09T19:47:52.549Z,75.13
2018-06-09T19:50:21.563Z,78.08
2018-06-09T19:52:51.692Z,80.09
2018-06-09T19:55:20.594Z,82.95
2018-06-09T19:57:49.590Z,76.93
2018-06-09T20:00:18.533Z,73.47
2018-06-09T20:02:47.355Z,72.58
2018-06-09T20:05:16.125Z,72.01
2018-06-09T20:07:44.987Z,71.40
2018-06-09T20:10:13.732Z,70.35
2018-06-09T20:12:42.534Z,70.64
2018-06-09T20:15:11.332Z,70.41
2018-06-09T20:17:40.067Z,70.16
2018-06-09T20:20:09.675Z,69.30
2018-06-09T20:22:38.499Z,70.05
2018-06-09T20:25:07.257Z,71.46
2018-06-09T20:27:43.445Z,70.64
2018-06-09T20:30:12.284Z,70.16
2018-06-09T20:32:41.805Z,70.61
2018-06-09T20:35:11.775Z,70.92
2018-06-09T20:37:40.590Z,70.19
2018-06-09T20:40:09.382Z,70.13
2018-06-09T20:42:38.263Z,69.44
2018-06-09T20:45:07.110Z,69.93
2018-06-09T20:47:35.912Z,69.82
2018-06-09T20:50:04.689Z,70.48
2018-06-09T20:52:33.427Z,70.61
2018-06-09T20:55:02.201Z,71.20
2018-06-09T20:57:31.245Z,71.19
2018-06-09T20:59:59.999Z,70.60
2018-06-09T21:02:28.729Z,71.00
2018-06-09T21:04:57.613Z,71.30
2018-06-09T21:07:26.354Z,72.39
2018-06-09T21:09:55.332Z,73.43
2018-06-09T21:12:24.221Z,73.20
2018-06-09T21:14:53.060Z,74.48
2018-06-09T21:17:21.761Z,73.72
2018-06-09T21:19:50.510Z,74.41
2018-06-09T21:22:19.240Z,73.24
2018-06-09T21:24:47.951Z,74.55
2018-06-09T21:27:21.793Z,74.65
2018-06-09T21:29:55.558Z,74.19
2018-06-09T21:32:33.874Z,74.87
2018-06-09T21:35:18.803Z,76.03
2018-06-09T21:37:48.461Z,77.31
2018-06-09T21:40:22.458Z,74.97
2018-06-09T21:42:56.297Z,75.70
2018-06-09T21:45:29.094Z,75.78
2018-06-09T21:47:57.885Z,75.63
2018-06-09T21:50:26.586Z,75.92
2018-06-09T21:52:55.281Z,76.93
2018-06-09T21:55:24.174Z,76.87
2018-06-09T21:57:52.989Z,75.55
2018-06-09T22:00:22.184Z,74.39
2018-06-09T22:02:50.986Z,72.66
2018-06-09T22:05:19.723Z,71.78
2018-06-09T22:07:48.421Z,73.38
2018-06-09T22:10:17.231Z,73.70
2018-06-09T22:12:46.044Z,74.21
2018-06-09T22:15:14.825Z,74.81
2018-06-09T22:17:43.579Z,75.04
2018-06-09T22:20:12.298Z,76.25
2018-06-09T22:22:41.043Z,75.86
2018-06-09T22:25:09.936Z,75.37
2018-06-09T22:27:38.629Z,75.31
2018-06-09T22:30:07.410Z,74.55
2018-06-09T22:32:36.177Z,75.67
2018-06-09T22:35:04.974Z,72.78
2018-06-09T22:37:33.681Z,71.47
2018-06-09T22:40:02.437Z,71.80
2018-06-09T22:42:31.143Z,71.16
2018-06-09T22:44:59.908Z,69.31
2018-06-09T22:47:28.894Z,70.11
2018-06-09T22:49:57.596Z,70.43
2018-06-09T22:52:26.382Z,70.43
2018-06-09T22:54:55.113Z,69.85
2018-06-09T22:57:23.846Z,71.10
2018-06-09T22:59:52.561Z,71.17
2018-06-09T23:02:21.383Z,71.02
2018-06-09T23:04:50.163Z,72.10
2018-06-09T23:07:18.863Z,73.03
2018-06-09T23:09:47.585Z,72.76
2018-06-09T23:12:16.478Z,71.87
2018-06-09T23:14:45.196Z,72.71
2018-06-09T23:17:13.938Z,72.50
2018-06-09T23:19:42.716Z,73.23
2018-06-09T23:22:11.422Z,74.51
2018-06-09T23:24:40.150Z,74.77
2018-06-09T23:27:08.889Z,74.94
2018-06-09T23:29:37.685Z,75.04
2018-06-09T23:32:06.430Z,74.84
2018-06-09T23:34:35.140Z,75.31
2018-06-09T23:37:03.870Z,75.18
2018-06-09T23:39:32.602Z,72.79
2018-06-09T23:42:01.343Z,73.64
2018-06-09T23:44:30.077Z,73.35
2018-06-09T23:46:58.865Z,73.01
2018-06-09T23:49:27.578Z,72.51
2018-06-09T23:51:56.288Z,72.77
2018-06-09T23:54:25.203Z,72.14
2018-06-09T23:56:53.919Z,71.95
2018-06-09T23:59:22.770Z,71.98
